sensor_id;sensor_type;location;lat;lon;timestamp;P1;durP1;ratioP1;P2;durP2;ratioP2
22622;SDS011;11478;51.094;7.030;2024-03-23T00:57:52;29.88;;;12.40;;
22622;SDS011;11478;51.094;7.030;2024-03-23T01:00:21;32.13;;;11.55;;
22622;SDS011;11478;51.094;7.030;2024-03-23T01:02:47;27.52;;;11.23;;
22622;SDS011;11478;51.094;7.030;2024-03-23T01:05:18;22.65;;;9.13;;
22622;SDS011;11478;51.094;7.030;2024-03-23T01:07:44;21.17;;;9.38;;
22622;SDS011;11478;51.094;7.030;2024-03-23T01:10:11;21.08;;;8.98;;
22622;SDS011;11478;51.094;7.030;2024-03-23T01:12:38;22.08;;;8.25;;
22622;SDS011;11478;51.094;7.030;2024-03-23T01:15:19;23.55;;;9.40;;
22622;SDS011;11478;51.094;7.030;2024-03-23T01:17:45;19.02;;;7.00;;
22622;SDS011;11478;51.094;7.030;2024-03-23T01:20:25;22.98;;;7.30;;
22622;SDS011;11478;51.094;7.030;2024-03-23T01:22:52;20.98;;;6.70;;
22622;SDS011;11478;51.094;7.030;2024-03-23T01:28:11;18.38;;;6.68;;
22622;SDS011;11478;51.094;7.030;2024-03-23T01:30:39;17.85;;;7.22;;
22622;SDS011;11478;51.094;7.030;2024-03-23T01:33:05;14.32;;;5.10;;
22622;SDS011;11478;51.094;7.030;2024-03-23T01:35:38;13.82;;;4.82;;
22622;SDS011;11478;51.094;7.030;2024-03-23T01:38:04;10.55;;;4.57;;
22622;SDS011;11478;51.094;7.030;2024-03-23T01:40:37;20.08;;;4.85;;
22622;SDS011;11478;51.094;7.030;2024-03-23T01:43:03;14.38;;;4.80;;
22622;SDS011;11478;51.094;7.030;2024-03-23T01:48:05;16.63;;;4.65;;
22622;SDS011;11478;51.094;7.030;2024-03-23T01:50:34;15.75;;;5.13;;
22622;SDS011;11478;51.094;7.030;2024-03-23T01:53:06;10.88;;;4.60;;
22622;SDS011;11478;51.094;7.030;2024-03-23T01:55:32;15.80;;;4.82;;
22622;SDS011;11478;51.094;7.030;2024-03-23T02:00:27;13.25;;;4.40;;
22622;SDS011;11478;51.094;7.030;2024-03-23T02:05:24;16.60;;;5.22;;
22622;SDS011;11478;51.094;7.030;2024-03-23T02:07:56;15.65;;;5.28;;
22622;SDS011;11478;51.094;7.030;2024-03-23T02:10:22;11.82;;;4.00;;
22622;SDS011;11478;51.094;7.030;2024-03-23T02:15:42;14.93;;;5.00;;
22622;SDS011;11478;51.094;7.030;2024-03-23T02:20:53;12.10;;;4.35;;
22622;SDS011;11478;51.094;7.030;2024-03-23T02:23:20;11.32;;;4.28;;
22622;SDS011;11478;51.094;7.030;2024-03-23T02:25:46;15.77;;;4.20;;
22622;SDS011;11478;51.094;7.030;2024-03-23T02:28:20;13.40;;;4.45;;
22622;SDS011;11478;51.094;7.030;2024-03-23T02:30:50;12.63;;;5.35;;
22622;SDS011;11478;51.094;7.030;2024-03-23T02:33:19;12.82;;;5.18;;
22622;SDS011;11478;51.094;7.030;2024-03-23T02:35:45;13.07;;;5.97;;
22622;SDS011;11478;51.094;7.030;2024-03-23T02:38:24;16.83;;;6.60;;
22622;SDS011;11478;51.094;7.030;2024-03-23T02:40:50;15.20;;;6.60;;
22622;SDS011;11478;51.094;7.030;2024-03-23T02:46:08;13.98;;;6.32;;
22622;SDS011;11478;51.094;7.030;2024-03-23T02:48:52;15.77;;;6.93;;
22622;SDS011;11478;51.094;7.030;2024-03-23T02:53:55;15.68;;;7.03;;
22622;SDS011;11478;51.094;7.030;2024-03-23T02:56:26;16.05;;;6.75;;
22622;SDS011;11478;51.094;7.030;2024-03-23T02:58:52;17.33;;;6.50;;
22622;SDS011;11478;51.094;7.030;2024-03-23T03:01:19;11.07;;;5.80;;
22622;SDS011;11478;51.094;7.030;2024-03-23T03:03:45;15.23;;;6.43;;
22622;SDS011;11478;51.094;7.030;2024-03-23T03:06:11;13.63;;;6.57;;
22622;SDS011;11478;51.094;7.030;2024-03-23T03:08:37;10.80;;;6.20;;
22622;SDS011;11478;51.094;7.030;2024-03-23T03:11:03;14.52;;;6.45;;
22622;SDS011;11478;51.094;7.030;2024-03-23T03:13:29;14.82;;;6.15;;
22622;SDS011;11478;51.094;7.030;2024-03-23T03:15:55;14.27;;;6.03;;
22622;SDS011;11478;51.094;7.030;2024-03-23T03:18:21;16.85;;;7.28;;
22622;SDS011;11478;51.094;7.030;2024-03-23T03:20:48;13.57;;;6.50;;
22622;SDS011;11478;51.094;7.030;2024-03-23T03:23:14;14.25;;;6.60;;
22622;SDS011;11478;51.094;7.030;2024-03-23T03:25:47;16.20;;;6.80;;
22622;SDS011;11478;51.094;7.030;2024-03-23T03:28:13;15.33;;;7.40;;
22622;SDS011;11478;51.094;7.030;2024-03-23T03:30:41;14.13;;;6.70;;
22622;SDS011;11478;51.094;7.030;2024-03-23T03:33:07;16.10;;;7.32;;
22622;SDS011;11478;51.094;7.030;2024-03-23T03:38:02;12.40;;;7.15;;
22622;SDS011;11478;51.094;7.030;2024-03-23T03:42:58;18.50;;;7.40;;
22622;SDS011;11478;51.094;7.030;2024-03-23T03:45:42;16.83;;;7.38;;
22622;SDS011;11478;51.094;7.030;2024-03-23T03:48:08;14.30;;;6.75;;
22622;SDS011;11478;51.094;7.030;2024-03-23T03:50:36;14.50;;;6.93;;
22622;SDS011;11478;51.094;7.030;2024-03-23T03:53:09;15.73;;;6.45;;
22622;SDS011;11478;51.094;7.030;2024-03-23T03:55:34;11.10;;;6.18;;
22622;SDS011;11478;51.094;7.030;2024-03-23T03:58:00;18.52;;;7.15;;
22622;SDS011;11478;51.094;7.030;2024-03-23T04:00:26;12.18;;;6.57;;
22622;SDS011;11478;51.094;7.030;2024-03-23T04:05:23;13.20;;;6.60;;
22622;SDS011;11478;51.094;7.030;2024-03-23T04:10:18;15.95;;;6.40;;
22622;SDS011;11478;51.094;7.030;2024-03-23T04:15:53;11.95;;;5.60;;
22622;SDS011;11478;51.094;7.030;2024-03-23T04:18:20;15.07;;;5.25;;
22622;SDS011;11478;51.094;7.030;2024-03-23T04:20:47;12.30;;;4.90;;
22622;SDS011;11478;51.094;7.030;2024-03-23T04:25:56;16.02;;;4.30;;
22622;SDS011;11478;51.094;7.030;2024-03-23T04:28:30;11.82;;;4.00;;
22622;SDS011;11478;51.094;7.030;2024-03-23T04:30:56;11.68;;;3.95;;
22622;SDS011;11478;51.094;7.030;2024-03-23T04:33:31;10.65;;;3.60;;
22622;SDS011;11478;51.094;7.030;2024-03-23T04:35:57;11.75;;;4.05;;
22622;SDS011;11478;51.094;7.030;2024-03-23T04:38:34;11.30;;;3.50;;
22622;SDS011;11478;51.094;7.030;2024-03-23T04:41:00;13.10;;;4.25;;
22622;SDS011;11478;51.094;7.030;2024-03-23T04:43:27;15.90;;;4.20;;
22622;SDS011;11478;51.094;7.030;2024-03-23T04:45:53;14.50;;;4.43;;
22622;SDS011;11478;51.094;7.030;2024-03-23T04:52:00;13.77;;;3.53;;
22622;SDS011;11478;51.094;7.030;2024-03-23T04:56:53;14.50;;;4.00;;
22622;SDS011;11478;51.094;7.030;2024-03-23T04:59:19;12.50;;;4.40;;
22622;SDS011;11478;51.094;7.030;2024-03-23T05:05:23;10.88;;;3.72;;
22622;SDS011;11478;51.094;7.030;2024-03-23T05:07:52;13.90;;;3.85;;
22622;SDS011;11478;51.094;7.030;2024-03-23T05:10:25;13.18;;;3.88;;
22622;SDS011;11478;51.094;7.030;2024-03-23T05:15:52;8.75;;;3.03;;
22622;SDS011;11478;51.094;7.030;2024-03-23T05:18:26;11.07;;;3.33;;
22622;SDS011;11478;51.094;7.030;2024-03-23T05:20:57;12.88;;;3.92;;
22622;SDS011;11478;51.094;7.030;2024-03-23T05:23:26;10.60;;;3.30;;
22622;SDS011;11478;51.094;7.030;2024-03-23T05:25:56;20.60;;;5.63;;
22622;SDS011;11478;51.094;7.030;2024-03-23T05:31:22;14.90;;;3.40;;
22622;SDS011;11478;51.094;7.030;2024-03-23T05:34:02;21.33;;;7.28;;
22622;SDS011;11478;51.094;7.030;2024-03-23T05:36:39;13.27;;;3.40;;
22622;SDS011;11478;51.094;7.030;2024-03-23T05:42:17;15.65;;;4.20;;
22622;SDS011;11478;51.094;7.030;2024-03-23T05:45:10;13.23;;;5.13;;
22622;SDS011;11478;51.094;7.030;2024-03-23T05:51:29;14.27;;;4.80;;
22622;SDS011;11478;51.094;7.030;2024-03-23T05:54:18;10.20;;;3.22;;
22622;SDS011;11478;51.094;7.030;2024-03-23T05:56:45;14.63;;;3.97;;
22622;SDS011;11478;51.094;7.030;2024-03-23T05:59:19;12.15;;;3.90;;
22622;SDS011;11478;51.094;7.030;2024-03-23T06:02:29;12.98;;;3.78;;
22622;SDS011;11478;51.094;7.030;2024-03-23T06:05:09;16.10;;;5.70;;
22622;SDS011;11478;51.094;7.030;2024-03-23T06:07:40;10.20;;;4.55;;
22622;SDS011;11478;51.094;7.030;2024-03-23T06:10:09;14.75;;;5.18;;
22622;SDS011;11478;51.094;7.030;2024-03-23T06:12:37;16.75;;;4.80;;
22622;SDS011;11478;51.094;7.030;2024-03-23T06:15:06;22.17;;;6.05;;
22622;SDS011;11478;51.094;7.030;2024-03-23T06:17:42;21.58;;;7.03;;
22622;SDS011;11478;51.094;7.030;2024-03-23T06:20:08;67.15;;;19.50;;
22622;SDS011;11478;51.094;7.030;2024-03-23T06:25:44;19.92;;;5.68;;
22622;SDS011;11478;51.094;7.030;2024-03-23T06:28:12;15.52;;;5.78;;
22622;SDS011;11478;51.094;7.030;2024-03-23T06:30:42;18.50;;;6.88;;
22622;SDS011;11478;51.094;7.030;2024-03-23T06:33:15;21.02;;;7.88;;
22622;SDS011;11478;51.094;7.030;2024-03-23T06:35:42;12.85;;;4.35;;
22622;SDS011;11478;51.094;7.030;2024-03-23T06:38:15;33.72;;;11.95;;
22622;SDS011;11478;51.094;7.030;2024-03-23T06:40:42;22.92;;;6.68;;
22622;SDS011;11478;51.094;7.030;2024-03-23T06:43:20;19.80;;;5.43;;
22622;SDS011;11478;51.094;7.030;2024-03-23T06:45:54;22.92;;;7.30;;
22622;SDS011;11478;51.094;7.030;2024-03-23T06:48:20;26.65;;;5.20;;
22622;SDS011;11478;51.094;7.030;2024-03-23T06:50:55;21.58;;;9.15;;
22622;SDS011;11478;51.094;7.030;2024-03-23T06:53:24;18.83;;;6.20;;
22622;SDS011;11478;51.094;7.030;2024-03-23T06:55:53;17.42;;;7.50;;
22622;SDS011;11478;51.094;7.030;2024-03-23T06:58:23;16.05;;;4.50;;
22622;SDS011;11478;51.094;7.030;2024-03-23T07:01:02;11.75;;;5.38;;
22622;SDS011;11478;51.094;7.030;2024-03-23T07:03:54;19.08;;;6.95;;
22622;SDS011;11478;51.094;7.030;2024-03-23T07:09:16;22.92;;;9.73;;
22622;SDS011;11478;51.094;7.030;2024-03-23T07:11:59;19.17;;;8.15;;
22622;SDS011;11478;51.094;7.030;2024-03-23T07:14:32;20.98;;;7.00;;
22622;SDS011;11478;51.094;7.030;2024-03-23T07:17:14;14.93;;;6.07;;
22622;SDS011;11478;51.094;7.030;2024-03-23T07:19:43;18.70;;;6.55;;
22622;SDS011;11478;51.094;7.030;2024-03-23T07:22:09;18.83;;;6.68;;
22622;SDS011;11478;51.094;7.030;2024-03-23T07:28:15;24.90;;;10.70;;
22622;SDS011;11478;51.094;7.030;2024-03-23T07:31:26;14.30;;;4.55;;
22622;SDS011;11478;51.094;7.030;2024-03-23T07:36:58;17.65;;;8.02;;
22622;SDS011;11478;51.094;7.030;2024-03-23T07:39:23;12.90;;;5.82;;
22622;SDS011;11478;51.094;7.030;2024-03-23T07:41:59;13.73;;;5.30;;
22622;SDS011;11478;51.094;7.030;2024-03-23T07:46:54;14.40;;;5.95;;
22622;SDS011;11478;51.094;7.030;2024-03-23T07:49:24;25.52;;;8.77;;
22622;SDS011;11478;51.094;7.030;2024-03-23T07:51:52;16.63;;;6.07;;
22622;SDS011;11478;51.094;7.030;2024-03-23T07:54:19;13.52;;;5.38;;
22622;SDS011;11478;51.094;7.030;2024-03-23T07:57:04;15.63;;;5.25;;
22622;SDS011;11478;51.094;7.030;2024-03-23T07:59:31;16.05;;;5.55;;
22622;SDS011;11478;51.094;7.030;2024-03-23T08:04:47;11.70;;;4.63;;
22622;SDS011;11478;51.094;7.030;2024-03-23T08:07:17;14.27;;;5.22;;
22622;SDS011;11478;51.094;7.030;2024-03-23T08:09:46;16.80;;;4.72;;
22622;SDS011;11478;51.094;7.030;2024-03-23T08:12:12;17.65;;;6.45;;
22622;SDS011;11478;51.094;7.030;2024-03-23T08:14:47;14.88;;;4.57;;
22622;SDS011;11478;51.094;7.030;2024-03-23T08:17:13;14.18;;;5.15;;
22622;SDS011;11478;51.094;7.030;2024-03-23T08:20:01;13.93;;;5.30;;
22622;SDS011;11478;51.094;7.030;2024-03-23T08:22:36;12.60;;;5.60;;
22622;SDS011;11478;51.094;7.030;2024-03-23T08:25:06;12.18;;;5.10;;
22622;SDS011;11478;51.094;7.030;2024-03-23T08:27:32;12.23;;;4.15;;
22622;SDS011;11478;51.094;7.030;2024-03-23T08:30:05;10.27;;;3.08;;
22622;SDS011;11478;51.094;7.030;2024-03-23T08:32:32;10.75;;;3.50;;
22622;SDS011;11478;51.094;7.030;2024-03-23T08:35:00;11.40;;;2.90;;
22622;SDS011;11478;51.094;7.030;2024-03-23T08:37:26;10.30;;;3.00;;
22622;SDS011;11478;51.094;7.030;2024-03-23T08:39:52;10.25;;;3.10;;
22622;SDS011;11478;51.094;7.030;2024-03-23T08:42:18;11.13;;;3.25;;
22622;SDS011;11478;51.094;7.030;2024-03-23T08:44:47;7.63;;;3.08;;
22622;SDS011;11478;51.094;7.030;2024-03-23T08:47:25;11.30;;;3.88;;
22622;SDS011;11478;51.094;7.030;2024-03-23T08:49:54;13.15;;;2.90;;
22622;SDS011;11478;51.094;7.030;2024-03-23T08:52:23;11.95;;;3.10;;
22622;SDS011;11478;51.094;7.030;2024-03-23T08:54:54;8.43;;;2.63;;
22622;SDS011;11478;51.094;7.030;2024-03-23T08:57:23;9.95;;;3.15;;
22622;SDS011;11478;51.094;7.030;2024-03-23T08:59:57;14.50;;;5.22;;
22622;SDS011;11478;51.094;7.030;2024-03-23T09:02:25;12.07;;;4.03;;
22622;SDS011;11478;51.094;7.030;2024-03-23T09:04:54;14.85;;;3.90;;
22622;SDS011;11478;51.094;7.030;2024-03-23T09:07:29;13.68;;;3.78;;
22622;SDS011;11478;51.094;7.030;2024-03-23T09:10:04;12.23;;;3.42;;
22622;SDS011;11478;51.094;7.030;2024-03-23T09:12:31;15.02;;;3.40;;
22622;SDS011;11478;51.094;7.030;2024-03-23T09:14:59;13.45;;;3.65;;
22622;SDS011;11478;51.094;7.030;2024-03-23T09:17:26;11.23;;;3.58;;
22622;SDS011;11478;51.094;7.030;2024-03-23T09:20:02;14.25;;;3.17;;
22622;SDS011;11478;51.094;7.030;2024-03-23T09:22:29;8.40;;;2.90;;
22622;SDS011;11478;51.094;7.030;2024-03-23T09:24:59;9.98;;;3.47;;
22622;SDS011;11478;51.094;7.030;2024-03-23T09:27:24;11.10;;;3.55;;
22622;SDS011;11478;51.094;7.030;2024-03-23T09:29:51;14.45;;;4.30;;
22622;SDS011;11478;51.094;7.030;2024-03-23T09:32:27;11.68;;;5.90;;
22622;SDS011;11478;51.094;7.030;2024-03-23T09:34:58;11.40;;;4.60;;
22622;SDS011;11478;51.094;7.030;2024-03-23T09:37:24;12.25;;;4.53;;
22622;SDS011;11478;51.094;7.030;2024-03-23T09:39:53;10.18;;;3.72;;
22622;SDS011;11478;51.094;7.030;2024-03-23T09:42:26;11.40;;;3.92;;
22622;SDS011;11478;51.094;7.030;2024-03-23T09:44:52;12.38;;;5.88;;
22622;SDS011;11478;51.094;7.030;2024-03-23T09:47:27;16.55;;;6.88;;
22622;SDS011;11478;51.094;7.030;2024-03-23T09:49:56;16.75;;;6.95;;
22622;SDS011;11478;51.094;7.030;2024-03-23T09:52:35;17.38;;;6.43;;
22622;SDS011;11478;51.094;7.030;2024-03-23T09:55:12;13.23;;;4.00;;
22622;SDS011;11478;51.094;7.030;2024-03-23T09:57:41;14.65;;;3.60;;
22622;SDS011;11478;51.094;7.030;2024-03-23T10:00:13;11.07;;;3.42;;
22622;SDS011;11478;51.094;7.030;2024-03-23T10:02:39;6.68;;;2.38;;
22622;SDS011;11478;51.094;7.030;2024-03-23T10:08:23;9.02;;;3.05;;
22622;SDS011;11478;51.094;7.030;2024-03-23T10:10:51;6.95;;;2.38;;
22622;SDS011;11478;51.094;7.030;2024-03-23T10:13:27;10.02;;;2.30;;
22622;SDS011;11478;51.094;7.030;2024-03-23T10:15:57;7.63;;;2.20;;
22622;SDS011;11478;51.094;7.030;2024-03-23T10:18:27;6.05;;;1.90;;
22622;SDS011;11478;51.094;7.030;2024-03-23T10:21:09;6.82;;;1.90;;
22622;SDS011;11478;51.094;7.030;2024-03-23T10:23:39;5.72;;;1.90;;
22622;SDS011;11478;51.094;7.030;2024-03-23T10:26:17;7.45;;;1.77;;
22622;SDS011;11478;51.094;7.030;2024-03-23T10:28:59;9.75;;;2.55;;
22622;SDS011;11478;51.094;7.030;2024-03-23T10:31:27;11.68;;;2.10;;
22622;SDS011;11478;51.094;7.030;2024-03-23T10:33:57;5.70;;;1.98;;
22622;SDS011;11478;51.094;7.030;2024-03-23T10:36:26;10.55;;;1.90;;
22622;SDS011;11478;51.094;7.030;2024-03-23T10:39:08;5.63;;;2.10;;
22622;SDS011;11478;51.094;7.030;2024-03-23T10:41:35;7.13;;;1.98;;
22622;SDS011;11478;51.094;7.030;2024-03-23T10:44:08;11.70;;;3.10;;
22622;SDS011;11478;51.094;7.030;2024-03-23T10:46:38;6.72;;;1.33;;
22622;SDS011;11478;51.094;7.030;2024-03-23T10:49:07;6.57;;;1.60;;
22622;SDS011;11478;51.094;7.030;2024-03-23T10:51:36;4.85;;;1.40;;
22622;SDS011;11478;51.094;7.030;2024-03-23T10:54:05;12.80;;;3.95;;
22622;SDS011;11478;51.094;7.030;2024-03-23T10:56:32;7.35;;;1.50;;
22622;SDS011;11478;51.094;7.030;2024-03-23T10:59:10;6.25;;;2.00;;
22622;SDS011;11478;51.094;7.030;2024-03-23T11:02:01;5.72;;;1.48;;
22622;SDS011;11478;51.094;7.030;2024-03-23T11:04:36;7.10;;;1.55;;
22622;SDS011;11478;51.094;7.030;2024-03-23T11:10:29;4.43;;;1.50;;
22622;SDS011;11478;51.094;7.030;2024-03-23T11:12:59;4.32;;;1.52;;
22622;SDS011;11478;51.094;7.030;2024-03-23T11:16:01;4.05;;;1.35;;
22622;SDS011;11478;51.094;7.030;2024-03-23T11:22:10;4.95;;;1.33;;
22622;SDS011;11478;51.094;7.030;2024-03-23T11:24:40;10.40;;;5.60;;
22622;SDS011;11478;51.094;7.030;2024-03-23T11:27:16;5.03;;;3.20;;
22622;SDS011;11478;51.094;7.030;2024-03-23T11:30:09;2.83;;;1.27;;
22622;SDS011;11478;51.094;7.030;2024-03-23T11:32:37;2.28;;;1.10;;
22622;SDS011;11478;51.094;7.030;2024-03-23T11:35:09;2.03;;;0.75;;
22622;SDS011;11478;51.094;7.030;2024-03-23T11:37:36;2.35;;;0.98;;
22622;SDS011;11478;51.094;7.030;2024-03-23T11:40:18;1.40;;;1.08;;
22622;SDS011;11478;51.094;7.030;2024-03-23T11:43:01;2.15;;;0.80;;
22622;SDS011;11478;51.094;7.030;2024-03-23T11:45:46;2.97;;;1.13;;
22622;SDS011;11478;51.094;7.030;2024-03-23T11:48:23;1.65;;;0.70;;
22622;SDS011;11478;51.094;7.030;2024-03-23T11:51:01;6.20;;;1.00;;
22622;SDS011;11478;51.094;7.030;2024-03-23T11:53:28;3.42;;;1.00;;
22622;SDS011;11478;51.094;7.030;2024-03-23T11:55:57;4.53;;;1.30;;
22622;SDS011;11478;51.094;7.030;2024-03-23T11:58:30;3.80;;;1.05;;
22622;SDS011;11478;51.094;7.030;2024-03-23T12:00:57;2.53;;;0.98;;
22622;SDS011;11478;51.094;7.030;2024-03-23T12:03:24;1.88;;;0.90;;
22622;SDS011;11478;51.094;7.030;2024-03-23T12:05:59;4.72;;;1.13;;
22622;SDS011;11478;51.094;7.030;2024-03-23T12:08:35;2.85;;;1.23;;
22622;SDS011;11478;51.094;7.030;2024-03-23T12:11:09;3.08;;;1.10;;
22622;SDS011;11478;51.094;7.030;2024-03-23T12:13:59;5.70;;;1.35;;
22622;SDS011;11478;51.094;7.030;2024-03-23T12:16:29;5.45;;;1.27;;
22622;SDS011;11478;51.094;7.030;2024-03-23T12:21:41;11.40;;;4.15;;
22622;SDS011;11478;51.094;7.030;2024-03-23T12:24:07;2.58;;;0.93;;
22622;SDS011;11478;51.094;7.030;2024-03-23T12:26:35;1.42;;;0.93;;
22622;SDS011;11478;51.094;7.030;2024-03-23T12:31:59;1.42;;;0.60;;
22622;SDS011;11478;51.094;7.030;2024-03-23T12:34:27;2.80;;;1.40;;
22622;SDS011;11478;51.094;7.030;2024-03-23T12:37:00;1.30;;;1.20;;
22622;SDS011;11478;51.094;7.030;2024-03-23T12:39:40;2.30;;;1.15;;
22622;SDS011;11478;51.094;7.030;2024-03-23T12:42:13;1.77;;;1.00;;
22622;SDS011;11478;51.094;7.030;2024-03-23T12:44:41;4.75;;;1.23;;
22622;SDS011;11478;51.094;7.030;2024-03-23T12:47:09;2.92;;;1.20;;
22622;SDS011;11478;51.094;7.030;2024-03-23T12:49:39;8.02;;;3.80;;
22622;SDS011;11478;51.094;7.030;2024-03-23T12:52:07;11.18;;;4.38;;
22622;SDS011;11478;51.094;7.030;2024-03-23T12:54:33;5.45;;;2.00;;
22622;SDS011;11478;51.094;7.030;2024-03-23T12:57:03;4.85;;;2.53;;
22622;SDS011;11478;51.094;7.030;2024-03-23T12:59:32;2.45;;;2.00;;
22622;SDS011;11478;51.094;7.030;2024-03-23T13:02:05;3.28;;;1.92;;
22622;SDS011;11478;51.094;7.030;2024-03-23T13:04:41;3.65;;;2.03;;
22622;SDS011;11478;51.094;7.030;2024-03-23T13:07:09;5.28;;;1.75;;
22622;SDS011;11478;51.094;7.030;2024-03-23T13:09:58;7.63;;;3.25;;
22622;SDS011;11478;51.094;7.030;2024-03-23T13:12:31;11.05;;;4.30;;
22622;SDS011;11478;51.094;7.030;2024-03-23T13:15:02;14.32;;;5.55;;
22622;SDS011;11478;51.094;7.030;2024-03-23T13:17:31;5.55;;;2.70;;
22622;SDS011;11478;51.094;7.030;2024-03-23T13:20:00;3.42;;;1.60;;
22622;SDS011;11478;51.094;7.030;2024-03-23T13:22:26;4.32;;;2.33;;
22622;SDS011;11478;51.094;7.030;2024-03-23T13:27:45;5.60;;;2.25;;
22622;SDS011;11478;51.094;7.030;2024-03-23T13:30:31;2.90;;;1.20;;
22622;SDS011;11478;51.094;7.030;2024-03-23T13:33:06;4.55;;;1.60;;
22622;SDS011;11478;51.094;7.030;2024-03-23T13:35:35;4.50;;;1.40;;
22622;SDS011;11478;51.094;7.030;2024-03-23T13:38:04;5.53;;;2.60;;
22622;SDS011;11478;51.094;7.030;2024-03-23T13:40:31;3.92;;;1.80;;
22622;SDS011;11478;51.094;7.030;2024-03-23T13:43:00;4.22;;;1.35;;
22622;SDS011;11478;51.094;7.030;2024-03-23T13:45:29;9.07;;;2.95;;
22622;SDS011;11478;51.094;7.030;2024-03-23T13:47:58;7.30;;;1.60;;
22622;SDS011;11478;51.094;7.030;2024-03-23T13:50:29;5.28;;;1.38;;
22622;SDS011;11478;51.094;7.030;2024-03-23T13:52:58;2.80;;;1.20;;
22622;SDS011;11478;51.094;7.030;2024-03-23T13:55:43;2.15;;;1.02;;
22622;SDS011;11478;51.094;7.030;2024-03-23T13:58:13;4.50;;;1.27;;
22622;SDS011;11478;51.094;7.030;2024-03-23T14:00:42;3.53;;;1.00;;
22622;SDS011;11478;51.094;7.030;2024-03-23T14:03:08;2.80;;;1.10;;
22622;SDS011;11478;51.094;7.030;2024-03-23T14:05:39;3.00;;;0.98;;
22622;SDS011;11478;51.094;7.030;2024-03-23T14:08:09;5.47;;;1.17;;
22622;SDS011;11478;51.094;7.030;2024-03-23T14:10:49;3.97;;;1.58;;
22622;SDS011;11478;51.094;7.030;2024-03-23T14:13:32;5.00;;;1.33;;
22622;SDS011;11478;51.094;7.030;2024-03-23T14:16:03;5.07;;;1.65;;
22622;SDS011;11478;51.094;7.030;2024-03-23T14:18:32;3.72;;;1.40;;
22622;SDS011;11478;51.094;7.030;2024-03-23T14:21:00;4.72;;;1.80;;
22622;SDS011;11478;51.094;7.030;2024-03-23T14:23:30;2.83;;;1.45;;
22622;SDS011;11478;51.094;7.030;2024-03-23T14:26:02;4.40;;;1.30;;
22622;SDS011;11478;51.094;7.030;2024-03-23T14:28:31;2.15;;;1.15;;
22622;SDS011;11478;51.094;7.030;2024-03-23T14:31:03;4.40;;;1.10;;
22622;SDS011;11478;51.094;7.030;2024-03-23T14:33:35;3.60;;;1.38;;
22622;SDS011;11478;51.094;7.030;2024-03-23T14:36:13;2.05;;;0.95;;
22622;SDS011;11478;51.094;7.030;2024-03-23T14:38:50;4.00;;;1.00;;
22622;SDS011;11478;51.094;7.030;2024-03-23T14:41:18;2.42;;;1.25;;
22622;SDS011;11478;51.094;7.030;2024-03-23T14:43:44;3.60;;;1.13;;
22622;SDS011;11478;51.094;7.030;2024-03-23T14:46:14;3.47;;;1.40;;
22622;SDS011;11478;51.094;7.030;2024-03-23T14:48:42;3.95;;;1.80;;
22622;SDS011;11478;51.094;7.030;2024-03-23T14:53:41;4.40;;;1.33;;
22622;SDS011;11478;51.094;7.030;2024-03-23T14:58:52;2.40;;;1.30;;
22622;SDS011;11478;51.094;7.030;2024-03-23T15:04:16;2.80;;;1.00;;
22622;SDS011;11478;51.094;7.030;2024-03-23T15:06:42;7.38;;;2.75;;
22622;SDS011;11478;51.094;7.030;2024-03-23T15:09:14;2.83;;;1.58;;
22622;SDS011;11478;51.094;7.030;2024-03-23T15:11:43;1.13;;;0.90;;
22622;SDS011;11478;51.094;7.030;2024-03-23T15:14:15;2.22;;;1.10;;
22622;SDS011;11478;51.094;7.030;2024-03-23T15:16:45;5.05;;;2.60;;
22622;SDS011;11478;51.094;7.030;2024-03-23T15:22:15;5.32;;;2.67;;
22622;SDS011;11478;51.094;7.030;2024-03-23T15:24:48;4.10;;;1.63;;
22622;SDS011;11478;51.094;7.030;2024-03-23T15:27:18;1.42;;;0.80;;
22622;SDS011;11478;51.094;7.030;2024-03-23T15:29:45;3.17;;;1.15;;
22622;SDS011;11478;51.094;7.030;2024-03-23T15:32:11;3.13;;;1.55;;
22622;SDS011;11478;51.094;7.030;2024-03-23T15:34:39;2.55;;;1.40;;
22622;SDS011;11478;51.094;7.030;2024-03-23T15:37:08;1.50;;;0.90;;
22622;SDS011;11478;51.094;7.030;2024-03-23T15:39:34;1.40;;;0.80;;
22622;SDS011;11478;51.094;7.030;2024-03-23T15:42:08;2.20;;;1.15;;
22622;SDS011;11478;51.094;7.030;2024-03-23T15:44:42;2.70;;;1.30;;
22622;SDS011;11478;51.094;7.030;2024-03-23T15:47:16;2.88;;;1.00;;
22622;SDS011;11478;51.094;7.030;2024-03-23T15:49:47;3.17;;;1.58;;
22622;SDS011;11478;51.094;7.030;2024-03-23T15:52:13;4.25;;;1.83;;
22622;SDS011;11478;51.094;7.030;2024-03-23T15:54:46;3.55;;;1.33;;
22622;SDS011;11478;51.094;7.030;2024-03-23T15:57:12;2.53;;;1.15;;
22622;SDS011;11478;51.094;7.030;2024-03-23T15:59:41;3.03;;;0.85;;
22622;SDS011;11478;51.094;7.030;2024-03-23T16:02:12;3.20;;;0.98;;
22622;SDS011;11478;51.094;7.030;2024-03-23T16:04:41;4.65;;;1.00;;
22622;SDS011;11478;51.094;7.030;2024-03-23T16:07:11;3.15;;;1.00;;
22622;SDS011;11478;51.094;7.030;2024-03-23T16:09:42;2.53;;;1.00;;
22622;SDS011;11478;51.094;7.030;2024-03-23T16:12:08;2.65;;;1.17;;
22622;SDS011;11478;51.094;7.030;2024-03-23T16:14:36;1.15;;;1.02;;
22622;SDS011;11478;51.094;7.030;2024-03-23T16:17:05;3.38;;;1.20;;
22622;SDS011;11478;51.094;7.030;2024-03-23T16:19:42;2.13;;;1.33;;
22622;SDS011;11478;51.094;7.030;2024-03-23T16:22:11;1.95;;;1.00;;
22622;SDS011;11478;51.094;7.030;2024-03-23T16:24:38;2.50;;;1.17;;
22622;SDS011;11478;51.094;7.030;2024-03-23T16:27:04;1.77;;;1.05;;
22622;SDS011;11478;51.094;7.030;2024-03-23T16:29:36;2.17;;;1.13;;
22622;SDS011;11478;51.094;7.030;2024-03-23T16:32:05;3.92;;;1.35;;
22622;SDS011;11478;51.094;7.030;2024-03-23T16:34:40;3.78;;;1.45;;
22622;SDS011;11478;51.094;7.030;2024-03-23T16:37:08;3.03;;;1.30;;
22622;SDS011;11478;51.094;7.030;2024-03-23T16:39:39;3.28;;;1.40;;
22622;SDS011;11478;51.094;7.030;2024-03-23T16:42:05;4.50;;;1.48;;
22622;SDS011;11478;51.094;7.030;2024-03-23T16:44:37;4.20;;;1.35;;
22622;SDS011;11478;51.094;7.030;2024-03-23T16:47:11;4.23;;;1.30;;
22622;SDS011;11478;51.094;7.030;2024-03-23T16:49:47;3.80;;;1.15;;
22622;SDS011;11478;51.094;7.030;2024-03-23T16:52:14;3.15;;;1.30;;
22622;SDS011;11478;51.094;7.030;2024-03-23T16:54:44;4.38;;;1.63;;
22622;SDS011;11478;51.094;7.030;2024-03-23T16:57:10;3.88;;;1.40;;
22622;SDS011;11478;51.094;7.030;2024-03-23T16:59:51;3.50;;;1.40;;
22622;SDS011;11478;51.094;7.030;2024-03-23T17:02:20;2.42;;;1.10;;
22622;SDS011;11478;51.094;7.030;2024-03-23T17:04:48;3.20;;;1.30;;
22622;SDS011;11478;51.094;7.030;2024-03-23T17:07:15;2.65;;;1.15;;
22622;SDS011;11478;51.094;7.030;2024-03-23T17:09:47;2.70;;;1.40;;
22622;SDS011;11478;51.094;7.030;2024-03-23T17:12:14;2.65;;;1.30;;
22622;SDS011;11478;51.094;7.030;2024-03-23T17:14:40;2.33;;;1.30;;
22622;SDS011;11478;51.094;7.030;2024-03-23T17:17:16;3.35;;;1.40;;
22622;SDS011;11478;51.094;7.030;2024-03-23T17:19:42;3.90;;;1.27;;
22622;SDS011;11478;51.094;7.030;2024-03-23T17:22:14;2.80;;;1.30;;
22622;SDS011;11478;51.094;7.030;2024-03-23T17:24:40;4.55;;;1.48;;
22622;SDS011;11478;51.094;7.030;2024-03-23T17:27:10;2.78;;;1.20;;
22622;SDS011;11478;51.094;7.030;2024-03-23T17:29:39;3.72;;;1.70;;
22622;SDS011;11478;51.094;7.030;2024-03-23T17:32:09;3.10;;;1.80;;
22622;SDS011;11478;51.094;7.030;2024-03-23T17:34:47;2.92;;;1.70;;
22622;SDS011;11478;51.094;7.030;2024-03-23T17:37:21;3.13;;;1.55;;
22622;SDS011;11478;51.094;7.030;2024-03-23T17:42:17;4.78;;;2.30;;
22622;SDS011;11478;51.094;7.030;2024-03-23T17:47:12;3.63;;;2.10;;
22622;SDS011;11478;51.094;7.030;2024-03-23T17:49:47;4.68;;;2.00;;
22622;SDS011;11478;51.094;7.030;2024-03-23T17:52:13;4.95;;;1.80;;